Orienta, Oklahoma
Current Conditions -  °F | °C
As of 8:15 AM on Friday 19 Dec 2014 (Local Time) from KJWG Reporting Station
Haze Haze  
Wind Chill: 35°   Ceiling: 2500
Heat Index: 35°   Visibility: 5mi
Dew Point: 35°   Wind: 0mph
Humidity: 100%   Direction: NA
Pressure: 30.24"   Gusts: NA
Location:  36.2837°N, 98.6091°W
Report Text: KJWG 191415Z AUTO 00000KT 5SM BR SCT006 OVC025 01/01 A3024 RMK AO2 T00140014 TSNO
Loading
Personal Weather Stations






























Interactive Weather Map New forecast layout! Learn more

10-Day Weather Forecast

Advertisements
Track Severe Weather on mobile